createdAt,value
2023-05-19T00:00:02.379Z,12.23
2023-05-19T00:00:48.512Z,12.05
2023-05-19T00:01:23.260Z,12.95
2023-05-19T00:01:56.723Z,11.48
2023-05-19T00:02:34.024Z,11.82
2023-05-19T00:03:09.236Z,12.65
2023-05-19T00:03:52.809Z,13.40
2023-05-19T00:04:28.342Z,14.07
2023-05-19T00:05:02.266Z,12.38
2023-05-19T00:05:36.818Z,12.68
2023-05-19T00:06:12.772Z,12.80
2023-05-19T00:06:51.105Z,13.20
2023-05-19T00:07:33.438Z,12.85
2023-05-19T00:08:06.963Z,11.85
2023-05-19T00:08:39.378Z,12.02
2023-05-19T00:09:14.893Z,11.93
2023-05-19T00:09:47.822Z,10.98
2023-05-19T00:10:20.898Z,11.63
2023-05-19T00:10:56.369Z,14.43
2023-05-19T00:11:29.739Z,11.45
2023-05-19T00:12:02.494Z,13.20
2023-05-19T00:12:38.744Z,11.52
2023-05-19T00:13:11.635Z,12.48
2023-05-19T00:13:48.443Z,11.18
2023-05-19T00:14:23.878Z,11.60
2023-05-19T00:14:56.638Z,11.70
2023-05-19T00:15:29.552Z,11.05
2023-05-19T00:16:02.389Z,10.65
2023-05-19T00:16:38.140Z,9.90
2023-05-19T00:17:11.034Z,11.98
2023-05-19T00:17:43.242Z,12.93
2023-05-19T00:18:18.281Z,11.32
2023-05-19T00:18:50.552Z,11.88
2023-05-19T00:19:25.145Z,12.77
2023-05-19T00:20:00.141Z,11.63
2023-05-19T00:20:32.633Z,13.23
2023-05-19T00:21:05.057Z,13.43
2023-05-19T00:21:41.171Z,12.52
2023-05-19T00:22:13.469Z,13.27
2023-05-19T00:22:48.302Z,12.73
2023-05-19T00:23:23.130Z,14.07
2023-05-19T00:23:55.870Z,16.23
2023-05-19T00:24:30.978Z,12.35
2023-05-19T00:25:03.481Z,13.70
2023-05-19T00:25:35.929Z,12.65
2023-05-19T00:26:10.702Z,11.20
2023-05-19T00:26:44.217Z,12.80
2023-05-19T00:27:16.454Z,12.82
2023-05-19T00:27:51.264Z,13.30
2023-05-19T00:28:23.543Z,13.20
2023-05-19T00:28:55.760Z,12.75
2023-05-19T00:29:28.147Z,13.18
2023-05-19T00:30:02.956Z,12.35
2023-05-19T00:30:35.273Z,13.57
2023-05-19T00:31:07.611Z,11.15
2023-05-19T00:31:42.387Z,12.43
2023-05-19T00:32:15.929Z,14.93
2023-05-19T00:32:48.219Z,13.10
2023-05-19T00:33:23.113Z,11.45
2023-05-19T00:33:55.412Z,13.55
2023-05-19T00:34:30.202Z,11.88
2023-05-19T00:35:02.396Z,12.13
2023-05-19T00:35:34.662Z,11.15
2023-05-19T00:36:10.503Z,11.85
2023-05-19T00:36:42.678Z,13.45
2023-05-19T00:37:15.279Z,13.90
2023-05-19T00:37:52.944Z,13.20
2023-05-19T00:38:25.134Z,14.82
2023-05-19T00:38:57.397Z,12.73
2023-05-19T00:39:29.575Z,12.00
2023-05-19T00:40:05.803Z,11.88
2023-05-19T00:40:38.298Z,11.75
2023-05-19T00:41:11.176Z,12.13
2023-05-19T00:41:43.615Z,9.90
2023-05-19T00:42:18.499Z,10.90
2023-05-19T00:42:50.812Z,11.93
2023-05-19T00:43:23.012Z,11.48
2023-05-19T00:43:58.337Z,12.30
2023-05-19T00:44:30.692Z,11.57
2023-05-19T00:45:02.880Z,12.07
2023-05-19T00:45:38.253Z,10.80
2023-05-19T00:46:11.322Z,13.45
2023-05-19T00:46:43.664Z,12.35
2023-05-19T00:47:18.662Z,12.13
2023-05-19T00:47:51.320Z,10.13
2023-05-19T00:48:23.638Z,12.60
2023-05-19T00:48:55.810Z,10.80
2023-05-19T00:49:30.592Z,10.30
2023-05-19T00:50:02.937Z,14.35
2023-05-19T00:50:35.448Z,12.50
2023-05-19T00:51:07.856Z,11.07
2023-05-19T00:51:44.053Z,10.20
2023-05-19T00:52:16.363Z,11.20
2023-05-19T00:52:51.500Z,11.32
2023-05-19T00:53:27.446Z,11.98
2023-05-19T00:53:59.856Z,9.88
2023-05-19T00:54:32.898Z,12.10
2023-05-19T00:55:10.023Z,10.50
2023-05-19T00:55:43.350Z,10.25
2023-05-19T00:56:17.788Z,9.05
2023-05-19T00:56:52.807Z,10.25
2023-05-19T00:57:26.216Z,10.48
2023-05-19T00:57:58.742Z,11.07
2023-05-19T00:58:36.140Z,11.90
2023-05-19T00:59:09.107Z,9.10
2023-05-19T00:59:41.433Z,12.75
2023-05-19T01:00:17.687Z,10.65
2023-05-19T01:00:50.836Z,12.55
2023-05-19T01:01:23.578Z,11.20
2023-05-19T01:01:58.678Z,11.23
2023-05-19T01:02:32.609Z,10.43
2023-05-19T01:03:11.645Z,11.77
2023-05-19T01:03:48.211Z,9.27
2023-05-19T01:04:21.958Z,11.10
2023-05-19T01:04:56.433Z,11.60
2023-05-19T01:05:31.430Z,11.05
2023-05-19T01:06:05.420Z,10.32
2023-05-19T01:06:38.241Z,9.80
2023-05-19T01:07:12.676Z,10.68
2023-05-19T01:07:47.716Z,10.13
2023-05-19T01:08:22.773Z,12.07
2023-05-19T01:08:55.112Z,9.52
2023-05-19T01:09:30.882Z,11.70
2023-05-19T01:10:03.521Z,11.02
2023-05-19T01:10:35.931Z,10.30
2023-05-19T01:11:11.266Z,9.95
2023-05-19T01:11:43.484Z,11.50
2023-05-19T01:12:16.242Z,10.23
2023-05-19T01:12:51.906Z,10.15
2023-05-19T01:13:24.303Z,9.85
2023-05-19T01:13:56.778Z,9.82
2023-05-19T01:14:31.932Z,11.27
2023-05-19T01:15:06.870Z,9.70
2023-05-19T01:15:50.967Z,10.80
2023-05-19T01:16:33.336Z,10.65
2023-05-19T01:17:15.335Z,10.10
2023-05-19T01:17:56.369Z,9.32
2023-05-19T01:18:44.741Z,10.80
2023-05-19T01:19:39.337Z,9.30
2023-05-19T01:20:23.000Z,10.30
2023-05-19T01:21:06.631Z,9.02
2023-05-19T01:22:23.314Z,11.93
2023-05-19T01:23:43.219Z,10.50
2023-05-19T01:24:47.954Z,9.82
2023-05-19T01:25:50.212Z,12.32
2023-05-19T01:27:03.836Z,12.63
2023-05-19T01:28:16.535Z,12.32
2023-05-19T01:29:10.433Z,11.02
2023-05-19T01:30:00.565Z,9.00
2023-05-19T01:30:36.366Z,9.77
2023-05-19T01:31:14.413Z,9.15
2023-05-19T01:31:48.179Z,6.78
2023-05-19T01:32:24.123Z,8.90
2023-05-19T01:33:03.748Z,9.50
2023-05-19T01:33:38.123Z,8.27
2023-05-19T01:34:13.691Z,8.10
2023-05-19T01:34:51.801Z,9.55
2023-05-19T01:35:26.321Z,6.85
2023-05-19T01:36:00.392Z,8.90
2023-05-19T01:36:36.419Z,7.97
2023-05-19T01:37:09.937Z,8.50
2023-05-19T01:37:43.233Z,6.15
2023-05-19T01:38:21.515Z,7.28
2023-05-19T01:38:57.032Z,7.38
2023-05-19T01:39:29.936Z,6.60
2023-05-19T01:40:06.498Z,6.40
2023-05-19T01:40:40.624Z,6.20
2023-05-19T01:41:13.278Z,6.60
2023-05-19T01:41:49.690Z,5.78
2023-05-19T01:42:23.842Z,7.70
2023-05-19T01:42:58.353Z,7.30
2023-05-19T01:43:34.192Z,7.85
2023-05-19T01:44:06.820Z,6.28
2023-05-19T01:44:39.628Z,8.10
2023-05-19T01:45:15.450Z,7.13
2023-05-19T01:45:51.282Z,7.88
2023-05-19T01:46:27.105Z,7.45
2023-05-19T01:47:00.483Z,7.28
2023-05-19T01:47:33.295Z,6.18
2023-05-19T01:48:08.531Z,7.53
2023-05-19T01:48:48.293Z,7.10
2023-05-19T01:49:20.678Z,6.78
2023-05-19T01:49:52.882Z,7.28
2023-05-19T01:50:28.166Z,6.43
2023-05-19T01:51:00.821Z,6.90
2023-05-19T01:51:33.045Z,7.40
2023-05-19T01:52:08.483Z,7.05
2023-05-19T01:52:40.716Z,6.22
2023-05-19T01:53:13.266Z,7.35
2023-05-19T01:53:48.091Z,5.47
2023-05-19T01:54:20.339Z,6.90
2023-05-19T01:54:52.579Z,6.30
2023-05-19T01:55:28.383Z,7.10
2023-05-19T01:56:00.956Z,7.68
2023-05-19T01:56:42.178Z,5.30
2023-05-19T01:57:24.912Z,5.32
2023-05-19T01:58:10.144Z,5.95
2023-05-19T01:58:45.696Z,6.68
2023-05-19T01:59:30.311Z,7.32
2023-05-19T02:00:15.960Z,6.00
2023-05-19T02:01:03.474Z,7.10
2023-05-19T02:01:56.146Z,6.35
2023-05-19T02:02:38.525Z,6.80
2023-05-19T02:03:21.863Z,7.28
2023-05-19T02:04:15.969Z,7.22
2023-05-19T02:04:54.977Z,6.70
2023-05-19T02:05:35.421Z,6.70
2023-05-19T02:06:54.374Z,7.05
2023-05-19T02:07:40.056Z,6.53
2023-05-19T02:08:21.066Z,8.13
2023-05-19T02:08:58.991Z,5.57
2023-05-19T02:09:42.536Z,8.07
2023-05-19T02:10:19.593Z,4.78
2023-05-19T02:10:57.909Z,5.85
2023-05-19T02:11:39.871Z,6.65
2023-05-19T02:12:19.708Z,5.85
2023-05-19T02:12:54.293Z,6.75
2023-05-19T02:13:34.286Z,5.32
2023-05-19T02:14:11.433Z,7.22
2023-05-19T02:14:52.939Z,5.95
2023-05-19T02:15:26.763Z,6.93
2023-05-19T02:16:05.714Z,6.00
2023-05-19T02:16:42.456Z,6.75
2023-05-19T02:17:18.186Z,5.18
2023-05-19T02:17:54.674Z,7.07
2023-05-19T02:18:30.211Z,6.47
2023-05-19T02:19:02.559Z,5.78
2023-05-19T02:19:37.369Z,7.05
2023-05-19T02:20:13.599Z,6.00
2023-05-19T02:20:45.790Z,5.65
2023-05-19T02:21:17.992Z,5.43
2023-05-19T02:21:53.190Z,5.95
2023-05-19T02:22:27.229Z,5.57
2023-05-19T02:22:59.422Z,6.65
2023-05-19T02:23:34.431Z,5.35
2023-05-19T02:24:07.457Z,6.35
2023-05-19T02:24:41.599Z,5.65
2023-05-19T02:25:16.860Z,6.68
2023-05-19T02:25:49.202Z,5.90
2023-05-19T02:26:21.990Z,7.22
2023-05-19T02:26:57.419Z,6.13
2023-05-19T02:27:30.203Z,6.72
2023-05-19T02:28:02.406Z,5.32
2023-05-19T02:28:37.793Z,5.45
2023-05-19T02:29:10.151Z,4.90
2023-05-19T02:29:42.479Z,5.15
2023-05-19T02:30:18.718Z,7.30
2023-05-19T02:30:50.929Z,6.65
2023-05-19T02:31:25.778Z,7.07
2023-05-19T02:32:00.586Z,5.53
2023-05-19T02:32:32.958Z,7.63
2023-05-19T02:33:06.739Z,5.65
2023-05-19T02:33:39.073Z,7.07
2023-05-19T02:34:13.845Z,4.28
2023-05-19T02:34:46.130Z,4.95
2023-05-19T02:35:18.676Z,6.18
2023-05-19T02:35:53.670Z,7.05
2023-05-19T02:36:26.890Z,5.28
2023-05-19T02:36:59.092Z,5.25
2023-05-19T02:37:35.564Z,7.60
2023-05-19T02:38:07.764Z,5.40
2023-05-19T02:38:42.596Z,6.97
2023-05-19T02:39:14.810Z,5.30
2023-05-19T02:39:47.086Z,6.70
2023-05-19T02:40:22.360Z,5.40
2023-05-19T02:40:55.120Z,7.22
2023-05-19T02:41:27.429Z,5.18
2023-05-19T02:42:02.357Z,4.70
2023-05-19T02:42:34.618Z,6.85
2023-05-19T02:43:07.088Z,4.70
2023-05-19T02:43:42.057Z,5.53
2023-05-19T02:44:14.399Z,5.32
2023-05-19T02:44:46.743Z,5.97
2023-05-19T02:45:21.538Z,6.20
2023-05-19T02:45:53.754Z,6.55
2023-05-19T02:46:28.826Z,5.55
2023-05-19T02:47:03.642Z,6.93
2023-05-19T02:47:37.234Z,5.07
2023-05-19T02:48:09.967Z,6.18
2023-05-19T02:48:42.165Z,6.55
2023-05-19T02:49:16.983Z,5.82
2023-05-19T02:49:49.268Z,6.32
2023-05-19T02:50:22.699Z,4.93
2023-05-19T02:50:57.476Z,5.88
2023-05-19T02:51:29.703Z,4.50
2023-05-19T02:52:02.404Z,4.93
2023-05-19T02:52:34.801Z,6.93
2023-05-19T02:53:09.914Z,6.93
2023-05-19T02:53:42.105Z,4.85
2023-05-19T02:54:14.289Z,6.18
2023-05-19T02:54:46.561Z,5.22
2023-05-19T02:55:21.561Z,6.85
2023-05-19T02:55:53.986Z,5.85
2023-05-19T02:56:26.628Z,6.60
2023-05-19T02:56:58.956Z,4.57
2023-05-19T02:57:34.487Z,5.60
2023-05-19T02:58:06.834Z,6.57
2023-05-19T02:58:39.676Z,6.75
2023-05-19T02:59:14.521Z,6.13
2023-05-19T02:59:46.715Z,5.55
2023-05-19T03:00:19.641Z,5.57
2023-05-19T03:00:52.478Z,5.45
2023-05-19T03:01:30.014Z,6.57
2023-05-19T03:02:03.253Z,4.75
2023-05-19T03:02:35.710Z,6.32
2023-05-19T03:03:10.757Z,4.90
2023-05-19T03:03:43.141Z,6.30
2023-05-19T03:04:15.513Z,10.90
2023-05-19T03:04:50.283Z,6.10
2023-05-19T03:05:22.507Z,5.95
2023-05-19T03:05:54.863Z,6.22
2023-05-19T03:06:29.721Z,6.43
2023-05-19T03:07:02.445Z,4.68
2023-05-19T03:07:35.214Z,7.80
2023-05-19T03:08:10.081Z,4.97
2023-05-19T03:08:42.500Z,5.95
2023-05-19T03:09:15.459Z,5.05
2023-05-19T03:09:50.545Z,5.32
2023-05-19T03:10:22.782Z,4.93
2023-05-19T03:10:55.057Z,5.70
2023-05-19T03:11:27.366Z,6.43
2023-05-19T03:12:04.296Z,5.25
2023-05-19T03:12:37.954Z,8.23
2023-05-19T03:13:10.118Z,5.60
2023-05-19T03:13:45.041Z,5.88
2023-05-19T03:14:18.897Z,5.07
2023-05-19T03:14:51.475Z,6.95
2023-05-19T03:15:26.228Z,4.80
2023-05-19T03:15:59.422Z,5.50
2023-05-19T03:16:34.321Z,5.03
2023-05-19T03:17:10.900Z,6.63
2023-05-19T03:17:43.506Z,5.97
2023-05-19T03:18:16.834Z,7.82
2023-05-19T03:18:51.671Z,7.30
2023-05-19T03:19:23.958Z,6.13
2023-05-19T03:19:56.206Z,9.45
2023-05-19T03:20:31.232Z,6.68
2023-05-19T03:21:04.007Z,6.70
2023-05-19T03:21:36.866Z,4.57
2023-05-19T03:22:11.833Z,6.53
2023-05-19T03:22:44.102Z,6.53
2023-05-19T03:23:16.553Z,6.85
2023-05-19T03:23:51.464Z,5.20
2023-05-19T03:24:24.169Z,6.47
2023-05-19T03:24:56.363Z,5.50
2023-05-19T03:25:31.135Z,7.13
2023-05-19T03:26:04.448Z,4.90
2023-05-19T03:26:36.638Z,5.30
2023-05-19T03:27:12.025Z,5.28
2023-05-19T03:27:44.276Z,4.38
2023-05-19T03:28:17.339Z,5.65
2023-05-19T03:28:52.149Z,7.13
2023-05-19T03:29:24.708Z,7.35
2023-05-19T03:29:57.126Z,4.72
2023-05-19T03:30:32.567Z,6.18
2023-05-19T03:31:21.942Z,5.70
2023-05-19T03:32:00.049Z,6.97
2023-05-19T03:32:33.161Z,6.35
2023-05-19T03:33:05.700Z,6.15
2023-05-19T03:33:40.680Z,4.80
2023-05-19T03:34:12.961Z,6.22
2023-05-19T03:34:45.669Z,4.80
2023-05-19T03:35:20.833Z,5.70
2023-05-19T03:35:53.210Z,5.28
2023-05-19T03:36:32.282Z,5.25
2023-05-19T03:37:05.621Z,7.00
2023-05-19T03:37:39.210Z,6.70
2023-05-19T03:38:14.008Z,4.85
2023-05-19T03:38:53.104Z,5.82
2023-05-19T03:39:25.363Z,4.75
2023-05-19T03:40:00.405Z,6.32
2023-05-19T03:40:33.017Z,4.82
2023-05-19T03:41:10.476Z,6.50
2023-05-19T03:41:45.238Z,8.00
2023-05-19T03:42:17.621Z,4.80
2023-05-19T03:42:49.945Z,7.40
2023-05-19T03:43:24.895Z,5.35
2023-05-19T03:44:02.032Z,7.47
2023-05-19T03:44:34.358Z,5.63
2023-05-19T03:45:10.578Z,7.03
2023-05-19T03:45:43.139Z,4.75
2023-05-19T03:46:37.964Z,5.13
2023-05-19T03:47:16.204Z,5.90
2023-05-19T03:47:51.287Z,5.28
2023-05-19T03:48:45.554Z,5.82
2023-05-19T03:49:38.109Z,6.07
2023-05-19T03:50:44.938Z,6.47
2023-05-19T03:51:30.169Z,7.15
2023-05-19T03:52:13.184Z,6.68
2023-05-19T03:52:58.664Z,6.00
2023-05-19T03:53:36.757Z,6.70
2023-05-19T03:54:11.581Z,7.10
2023-05-19T03:54:43.980Z,6.55
2023-05-19T03:55:16.580Z,6.38
2023-05-19T03:55:51.465Z,6.13
2023-05-19T03:56:25.234Z,6.50
2023-05-19T03:56:57.720Z,7.25
2023-05-19T03:57:33.764Z,5.47
2023-05-19T03:58:06.612Z,7.53
2023-05-19T03:58:40.936Z,7.07
2023-05-19T03:59:16.382Z,6.78
2023-05-19T03:59:48.619Z,9.45
2023-05-19T04:00:20.845Z,6.72
2023-05-19T04:00:55.622Z,8.93
2023-05-19T04:01:27.867Z,6.10
2023-05-19T04:02:00.053Z,7.70
2023-05-19T04:02:37.543Z,8.23
2023-05-19T04:03:10.193Z,7.28
2023-05-19T04:03:45.082Z,6.50
2023-05-19T04:04:17.399Z,6.03
2023-05-19T04:04:51.415Z,6.60
2023-05-19T04:05:26.284Z,7.35
2023-05-19T04:05:59.294Z,7.50
2023-05-19T04:06:31.548Z,6.05
2023-05-19T04:07:04.521Z,7.95
2023-05-19T04:07:39.349Z,5.88
2023-05-19T04:08:11.661Z,6.75
2023-05-19T04:08:44.677Z,8.55
2023-05-19T04:09:20.788Z,8.30
2023-05-19T04:09:52.994Z,9.15
2023-05-19T04:10:25.918Z,7.35
2023-05-19T04:11:02.646Z,8.63
2023-05-19T04:11:35.158Z,7.50
2023-05-19T04:12:08.166Z,8.45
2023-05-19T04:12:43.095Z,7.82
2023-05-19T04:13:15.399Z,8.75
2023-05-19T04:13:47.596Z,9.27
2023-05-19T04:14:22.697Z,8.60
2023-05-19T04:14:54.862Z,7.38
2023-05-19T04:15:27.195Z,7.20
2023-05-19T04:16:02.230Z,7.05
2023-05-19T04:16:35.021Z,7.45
2023-05-19T04:17:08.648Z,8.70
2023-05-19T04:17:46.280Z,7.43
2023-05-19T04:18:18.533Z,6.90
2023-05-19T04:18:50.899Z,8.63
2023-05-19T04:19:25.831Z,9.40
2023-05-19T04:19:58.145Z,7.45
2023-05-19T04:20:30.409Z,8.75
2023-05-19T04:21:05.296Z,8.60
2023-05-19T04:21:37.531Z,7.90
2023-05-19T04:22:10.218Z,4.55
2023-05-19T04:22:45.088Z,9.85
2023-05-19T04:23:17.316Z,7.55
2023-05-19T04:23:50.083Z,6.53
2023-05-19T04:24:25.069Z,7.15
2023-05-19T04:24:57.295Z,11.23
2023-05-19T04:25:29.841Z,11.32
2023-05-19T04:26:06.935Z,6.50
2023-05-19T04:26:42.676Z,7.07
2023-05-19T04:27:16.633Z,5.47
2023-05-19T04:27:48.984Z,7.57
2023-05-19T04:28:24.456Z,7.05
2023-05-19T04:28:56.918Z,7.55
2023-05-19T04:29:30.213Z,7.53
2023-05-19T04:30:05.163Z,7.75
2023-05-19T04:30:38.806Z,6.28
2023-05-19T04:31:12.929Z,7.18
2023-05-19T04:31:47.855Z,6.35
2023-05-19T04:32:20.178Z,7.13
2023-05-19T04:32:58.296Z,10.18
2023-05-19T04:33:34.230Z,8.13
2023-05-19T04:34:08.128Z,5.97
2023-05-19T04:34:40.686Z,6.35
2023-05-19T04:35:17.837Z,5.07
2023-05-19T04:35:50.798Z,5.65
2023-05-19T04:37:46.200Z,4.78
2023-05-19T04:38:22.398Z,5.88
2023-05-19T04:39:02.530Z,6.70
2023-05-19T04:40:12.847Z,6.65
2023-05-19T04:40:46.454Z,8.48
2023-05-19T04:41:21.268Z,6.85
2023-05-19T04:41:54.363Z,7.68
2023-05-19T04:42:30.878Z,6.82
2023-05-19T04:43:09.659Z,7.13
2023-05-19T04:43:44.716Z,7.15
2023-05-19T04:44:20.923Z,7.20
2023-05-19T04:44:55.769Z,7.20
2023-05-19T04:45:30.409Z,6.38
2023-05-19T04:46:09.259Z,9.65
2023-05-19T04:46:42.915Z,8.50
2023-05-19T04:47:15.807Z,7.50
2023-05-19T04:47:50.910Z,7.80
2023-05-19T04:48:26.230Z,5.43
2023-05-19T04:49:01.457Z,6.65
2023-05-19T04:49:38.962Z,7.28
2023-05-19T04:50:11.773Z,6.07
2023-05-19T04:50:44.696Z,8.38
2023-05-19T04:51:20.075Z,5.57
2023-05-19T04:51:55.514Z,7.60
2023-05-19T04:52:31.033Z,7.47
2023-05-19T04:53:06.154Z,7.63
2023-05-19T04:53:40.361Z,8.48
2023-05-19T04:54:14.721Z,9.38
2023-05-19T04:54:49.550Z,8.10
2023-05-19T04:55:22.172Z,7.45
2023-05-19T04:55:55.637Z,8.38
2023-05-19T04:56:30.640Z,6.25
2023-05-19T04:57:03.126Z,6.60
2023-05-19T04:57:40.449Z,6.45
2023-05-19T04:58:12.923Z,9.10
2023-05-19T04:58:45.151Z,9.02
2023-05-19T04:59:20.260Z,7.47
2023-05-19T04:59:53.625Z,8.93
2023-05-19T05:00:26.325Z,13.38
2023-05-19T05:01:06.253Z,9.85
2023-05-19T05:01:40.553Z,9.23
2023-05-19T05:02:14.445Z,7.75
2023-05-19T05:02:50.286Z,10.85
2023-05-19T05:03:28.364Z,9.68
2023-05-19T05:04:03.003Z,8.18
2023-05-19T05:04:42.706Z,7.78
2023-05-19T05:05:15.148Z,9.00
2023-05-19T05:05:47.399Z,8.55
2023-05-19T05:06:22.327Z,7.75
2023-05-19T05:06:54.577Z,5.25
2023-05-19T05:07:28.911Z,6.45
2023-05-19T05:08:04.536Z,5.43
2023-05-19T05:08:41.640Z,10.85
2023-05-19T05:09:14.518Z,7.03
2023-05-19T05:09:49.303Z,7.03
2023-05-19T05:10:22.406Z,9.98
2023-05-19T05:10:55.705Z,7.65
2023-05-19T05:11:31.454Z,9.63
2023-05-19T05:12:04.602Z,8.20
2023-05-19T05:12:37.493Z,8.13
2023-05-19T05:13:13.706Z,8.48
2023-05-19T05:13:46.672Z,8.02
2023-05-19T05:14:20.305Z,9.43
2023-05-19T05:14:56.860Z,6.80
2023-05-19T05:15:30.126Z,8.82
2023-05-19T05:16:06.795Z,9.77
2023-05-19T05:16:42.428Z,8.68
2023-05-19T05:17:18.040Z,6.57
2023-05-19T05:17:51.132Z,10.65
2023-05-19T05:18:27.140Z,6.78
2023-05-19T05:19:02.773Z,7.88
2023-05-19T05:19:38.536Z,6.18
2023-05-19T05:20:13.352Z,5.82
2023-05-19T05:20:47.266Z,6.68
2023-05-19T05:21:24.055Z,5.78
2023-05-19T05:21:57.547Z,7.57
2023-05-19T05:22:30.829Z,7.13
2023-05-19T05:23:06.976Z,8.35
2023-05-19T05:23:40.159Z,7.05
2023-05-19T05:24:13.693Z,6.38
2023-05-19T05:24:53.105Z,8.05
2023-05-19T05:25:26.019Z,7.82
2023-05-19T05:25:58.952Z,6.45
2023-05-19T05:26:37.162Z,7.43
2023-05-19T05:27:10.462Z,6.03
2023-05-19T05:27:43.024Z,5.80
2023-05-19T05:28:18.043Z,7.70
2023-05-19T05:28:51.483Z,5.88
2023-05-19T05:29:23.839Z,6.13
2023-05-19T05:29:59.345Z,7.13
2023-05-19T05:30:34.217Z,7.75
2023-05-19T05:31:06.461Z,7.95
2023-05-19T05:31:41.353Z,6.85
2023-05-19T05:32:14.075Z,7.25
2023-05-19T05:32:46.590Z,6.25
2023-05-19T05:33:35.704Z,7.88
2023-05-19T05:34:10.894Z,7.00
2023-05-19T05:34:43.391Z,7.00
2023-05-19T05:35:19.631Z,6.97
2023-05-19T05:35:51.877Z,7.32
2023-05-19T05:36:24.311Z,9.43
2023-05-19T05:36:59.151Z,7.47
2023-05-19T05:37:31.547Z,7.65
2023-05-19T05:38:03.904Z,5.65
2023-05-19T05:38:39.179Z,7.45
2023-05-19T05:39:11.378Z,8.48
2023-05-19T05:39:45.957Z,7.68
2023-05-19T05:40:22.023Z,8.43
2023-05-19T05:40:54.331Z,8.70
2023-05-19T05:41:27.589Z,8.02
2023-05-19T05:42:02.556Z,7.78
2023-05-19T05:42:35.207Z,7.95
2023-05-19T05:43:07.807Z,7.03
2023-05-19T05:43:47.779Z,6.18
2023-05-19T05:44:19.975Z,7.55
2023-05-19T05:44:55.039Z,7.72
2023-05-19T05:45:27.409Z,7.88
2023-05-19T05:46:00.790Z,5.22
2023-05-19T05:46:36.027Z,8.95
2023-05-19T05:47:09.986Z,7.97
2023-05-19T05:47:42.826Z,6.82
2023-05-19T05:48:18.624Z,6.90
2023-05-19T05:48:51.539Z,7.47
2023-05-19T05:49:27.628Z,6.30
2023-05-19T05:50:03.866Z,7.72
2023-05-19T05:50:37.380Z,5.80
2023-05-19T05:51:11.071Z,8.82
2023-05-19T05:51:57.928Z,7.25
2023-05-19T05:52:41.419Z,4.97
2023-05-19T05:53:21.605Z,5.53
2023-05-19T05:53:58.768Z,5.93
2023-05-19T05:54:40.490Z,9.13
2023-05-19T05:55:15.351Z,6.43
2023-05-19T05:55:48.483Z,9.73
2023-05-19T05:56:25.362Z,8.20
2023-05-19T05:57:00.181Z,6.97
2023-05-19T05:57:35.567Z,6.35
2023-05-19T05:58:11.313Z,6.18
2023-05-19T05:58:44.184Z,6.45
2023-05-19T05:59:17.043Z,8.98
2023-05-19T05:59:52.205Z,7.05
2023-05-19T06:00:25.297Z,7.53
2023-05-19T06:00:58.796Z,10.15
2023-05-19T06:01:35.872Z,8.07
2023-05-19T06:02:10.291Z,7.35
2023-05-19T06:02:43.868Z,6.93
2023-05-19T06:03:22.403Z,6.65
2023-05-19T06:03:54.896Z,5.70
2023-05-19T06:04:31.614Z,6.93
2023-05-19T06:05:06.706Z,6.03
2023-05-19T06:05:39.458Z,7.82
2023-05-19T06:06:14.789Z,8.13
2023-05-19T06:06:47.110Z,12.50
2023-05-19T06:07:24.554Z,12.70
2023-05-19T06:07:59.815Z,14.15
2023-05-19T06:08:33.768Z,10.13
2023-05-19T06:09:06.006Z,9.38
2023-05-19T06:09:41.189Z,11.35
2023-05-19T06:10:15.187Z,13.95
2023-05-19T06:10:50.155Z,10.13
2023-05-19T06:11:22.643Z,12.18
2023-05-19T06:11:54.875Z,10.20
2023-05-19T06:12:29.687Z,9.55
2023-05-19T06:13:01.934Z,12.23
2023-05-19T06:13:34.368Z,10.57
2023-05-19T06:14:09.195Z,11.68
2023-05-19T06:15:13.837Z,11.20
2023-05-19T06:16:08.346Z,19.83
2023-05-19T06:17:17.716Z,9.07
2023-05-19T06:17:52.542Z,8.95
2023-05-19T06:18:24.820Z,7.60
2023-05-19T06:18:59.195Z,10.95
2023-05-19T06:19:36.728Z,8.65
2023-05-19T06:20:10.392Z,8.98
2023-05-19T06:20:42.681Z,8.15
2023-05-19T06:21:17.902Z,7.15
2023-05-19T06:21:50.076Z,7.43
2023-05-19T06:22:22.280Z,8.85
2023-05-19T06:22:57.058Z,6.88
2023-05-19T06:23:32.028Z,7.45
2023-05-19T06:24:05.839Z,6.78
2023-05-19T06:24:40.608Z,6.72
2023-05-19T06:25:14.750Z,7.18
2023-05-19T06:25:47.926Z,8.70
2023-05-19T06:26:23.127Z,7.57
2023-05-19T06:26:55.577Z,6.85
2023-05-19T06:27:27.786Z,8.82
2023-05-19T06:28:02.630Z,7.90
2023-05-19T06:28:34.836Z,8.60
2023-05-19T06:29:07.080Z,7.00
2023-05-19T06:29:42.133Z,8.32
2023-05-19T06:30:15.263Z,6.68
2023-05-19T06:31:16.649Z,6.45
2023-05-19T06:31:58.374Z,8.27
2023-05-19T06:32:33.367Z,10.60
2023-05-19T06:33:05.999Z,6.82
2023-05-19T06:33:38.415Z,7.30
2023-05-19T06:34:16.546Z,7.22
2023-05-19T06:34:54.846Z,7.20
2023-05-19T06:35:29.906Z,7.63
2023-05-19T06:36:02.230Z,7.32
2023-05-19T06:36:35.986Z,8.07
2023-05-19T06:37:11.416Z,6.20
2023-05-19T06:37:43.671Z,8.60
2023-05-19T06:38:16.270Z,9.27
2023-05-19T06:38:51.193Z,8.18
2023-05-19T06:39:23.479Z,8.10
2023-05-19T06:39:58.264Z,7.57
2023-05-19T06:40:30.803Z,7.13
2023-05-19T06:41:03.389Z,6.35
2023-05-19T06:41:38.280Z,6.22
2023-05-19T06:42:12.752Z,7.95
2023-05-19T06:43:16.386Z,8.77
2023-05-19T06:44:00.104Z,8.93
2023-05-19T06:44:35.543Z,7.03
2023-05-19T06:45:11.713Z,7.20
2023-05-19T06:45:44.095Z,6.07
2023-05-19T06:46:18.019Z,5.88
2023-05-19T06:46:53.211Z,5.60
2023-05-19T06:47:26.099Z,6.65
2023-05-19T06:48:01.192Z,6.10
2023-05-19T06:48:34.923Z,8.32
2023-05-19T06:49:08.129Z,9.20
2023-05-19T06:49:50.930Z,5.97
2023-05-19T06:50:26.067Z,6.82
2023-05-19T06:51:00.877Z,8.25
2023-05-19T06:51:33.390Z,6.88
2023-05-19T06:52:06.278Z,6.90
2023-05-19T06:52:41.407Z,5.78
2023-05-19T06:53:13.647Z,6.68
2023-05-19T06:53:48.508Z,7.28
2023-05-19T06:54:20.771Z,8.07
2023-05-19T06:54:53.050Z,8.68
2023-05-19T06:55:28.142Z,9.90
2023-05-19T06:56:00.563Z,7.95
2023-05-19T06:56:41.667Z,9.38
2023-05-19T06:57:14.149Z,8.40
2023-05-19T06:57:46.465Z,10.63
2023-05-19T06:58:22.016Z,5.57
2023-05-19T06:58:54.368Z,10.48
2023-05-19T06:59:33.366Z,8.13
2023-05-19T07:00:07.542Z,8.18
2023-05-19T07:00:39.773Z,8.77
2023-05-19T07:01:16.780Z,11.40
2023-05-19T07:01:54.574Z,11.40
2023-05-19T07:02:29.003Z,8.80
2023-05-19T07:03:04.080Z,8.10
2023-05-19T07:03:36.627Z,8.48
2023-05-19T07:04:09.312Z,9.02
2023-05-19T07:04:44.089Z,6.53
2023-05-19T07:05:21.013Z,8.85
2023-05-19T07:06:03.766Z,9.35
2023-05-19T07:06:37.361Z,7.45
2023-05-19T07:07:09.725Z,7.60
2023-05-19T07:07:44.851Z,7.45
2023-05-19T07:08:19.856Z,6.22
2023-05-19T07:08:55.374Z,7.63
2023-05-19T07:09:28.127Z,10.27
2023-05-19T07:10:01.876Z,7.93
2023-05-19T07:10:37.849Z,11.30
2023-05-19T07:11:14.603Z,8.15
2023-05-19T07:11:47.890Z,7.25
2023-05-19T07:12:22.689Z,9.65
2023-05-19T07:12:55.446Z,8.48
2023-05-19T07:13:30.355Z,10.65
2023-05-19T07:14:05.327Z,7.22
2023-05-19T07:14:39.056Z,9.23
2023-05-19T07:15:12.037Z,7.97
2023-05-19T07:15:49.174Z,7.90
2023-05-19T07:16:22.679Z,9.27
2023-05-19T07:16:57.550Z,8.40
2023-05-19T07:17:29.917Z,10.20
2023-05-19T07:18:04.822Z,9.63
2023-05-19T07:18:37.220Z,12.48
2023-05-19T07:19:09.501Z,9.07
2023-05-19T07:19:44.682Z,12.70
2023-05-19T07:20:17.163Z,12.35
2023-05-19T07:20:49.641Z,9.65
2023-05-19T07:21:27.033Z,7.72
2023-05-19T07:21:59.603Z,9.45
2023-05-19T07:22:32.477Z,9.43
2023-05-19T07:23:07.282Z,9.40
2023-05-19T07:23:41.295Z,10.05
2023-05-19T07:24:13.889Z,10.75
2023-05-19T07:24:48.643Z,10.43
2023-05-19T07:25:22.502Z,11.07
2023-05-19T07:25:56.363Z,9.20
2023-05-19T07:26:32.300Z,7.03
2023-05-19T07:27:05.480Z,9.13
2023-05-19T07:27:37.684Z,10.15
2023-05-19T07:28:12.464Z,9.93
2023-05-19T07:28:44.751Z,9.65
2023-05-19T07:29:16.921Z,8.18
2023-05-19T07:29:51.799Z,9.73
2023-05-19T07:30:24.039Z,9.82
2023-05-19T07:30:56.474Z,10.45
2023-05-19T07:31:31.357Z,10.40
2023-05-19T07:32:03.741Z,8.63
2023-05-19T07:32:38.618Z,8.55
2023-05-19T07:33:11.026Z,7.50
2023-05-19T07:33:43.333Z,9.07
2023-05-19T07:34:18.198Z,7.90
2023-05-19T07:34:50.396Z,7.70
2023-05-19T07:35:22.902Z,10.15
2023-05-19T07:35:57.784Z,8.48
2023-05-19T07:36:32.560Z,9.57
2023-05-19T07:37:07.657Z,8.02
2023-05-19T07:37:39.900Z,8.25
2023-05-19T07:38:12.393Z,6.65
2023-05-19T07:38:47.358Z,9.13
2023-05-19T07:39:20.413Z,9.02
2023-05-19T07:39:52.805Z,9.73
2023-05-19T07:40:27.890Z,9.13
2023-05-19T07:41:00.489Z,9.45
2023-05-19T07:41:36.486Z,11.82
2023-05-19T07:42:08.865Z,7.78
2023-05-19T07:42:44.738Z,9.73
2023-05-19T07:43:16.947Z,8.25
2023-05-19T07:43:49.266Z,8.23
2023-05-19T07:44:24.098Z,9.27
2023-05-19T07:44:56.342Z,9.93
2023-05-19T07:45:31.404Z,9.80
2023-05-19T07:46:04.392Z,9.55
2023-05-19T07:46:39.986Z,9.50
2023-05-19T07:47:12.225Z,10.10
2023-05-19T07:47:44.530Z,11.95
2023-05-19T07:48:19.409Z,9.00